.
WxDataArchive / Data Records for 2006-07-30
2006-07-29 July 2006 2006-07-31

Data Records for Sunday, 30 July 2006

Time	Temp	Chill	HIndex	Humid	Dewpt	 Wind 	HiWind	WindDir	Rain 	Barom 
-----	----	-----	------	-----	-----	------	------	-------	-----	----- 
00:00	80.3	80.3	84.9	80	73.5	0	1	248	0.00	29.893 
00:05	80.1	80.1	84.4	80	73.4	0	2	248	0.00	29.893 
00:10	80.1	80.1	84.4	80	73.4	1	2	248	0.00	29.893 
00:15	80.1	80.1	84.4	80	73.4	1	2	248	0.00	29.892 
00:20	80.1	80.1	84.4	80	73.4	0	1	248	0.00	29.892 
00:25	79.9	79.9	84.0	80	73.2	0	1	248	0.00	29.892 
00:30	79.9	79.9	84.0	80	73.2	0	1	248	0.00	29.892 
00:35	79.8	79.8	83.9	81	73.4	0	2	248	0.00	29.892 
00:40	79.8	79.8	83.9	81	73.4	1	2	248	0.00	29.892 
00:45	79.8	79.8	83.9	81	73.4	1	2	248	0.00	29.893 
00:50	79.6	79.6	83.5	81	73.2	0	2	248	0.00	29.893 
00:55	79.6	79.6	83.5	81	73.2	1	2	248	0.00	29.893 
01:00	79.6	79.6	83.6	82	73.6	0	1	248	0.00	29.891 
01:05	79.4	79.4	83.2	82	73.4	0	1	248	0.00	29.891 
01:10	79.2	79.2	82.8	82	73.2	0	1	248	0.00	29.891 
01:15	79.0	79.0	82.4	83	73.4	0	1	248	0.00	29.891 
01:20	79.0	79.0	82.4	83	73.4	0	1	248	0.00	29.891 
01:25	79.0	79.0	82.4	83	73.4	0	1	248	0.00	29.891 
01:30	78.8	78.8	82.0	83	73.2	0	1	248	0.00	29.889 
01:35	78.6	78.6	81.6	83	73.0	0	1	248	0.00	29.889 
01:40	78.6	78.6	81.6	84	73.3	0	1	248	0.00	29.889 
01:45	78.5	78.5	81.4	84	73.2	0	1	248	0.00	29.885 
01:50	78.5	78.5	81.4	84	73.2	0	2	248	0.00	29.885 
01:55	78.5	78.5	81.4	84	73.2	0	1	248	0.00	29.885 
02:00	78.3	78.3	81.0	84	73.1	0	2	248	0.00	29.889 
02:05	78.3	78.3	81.0	85	73.4	1	3	248	0.00	29.889 
02:10	78.1	78.1	80.6	85	73.2	0	1	248	0.00	29.889 
02:15	78.1	78.1	80.6	85	73.2	0	1	248	0.00	29.888 
02:20	77.9	77.9	80.2	85	73.0	0	1	248	0.00	29.888 
02:25	77.9	77.9	80.2	85	73.0	0	1	248	0.00	29.888 
02:30	77.7	77.7	79.8	85	72.8	0	1	248	0.00	29.883 
02:35	77.6	77.6	79.6	86	73.1	0	0	---	0.00	29.883 
02:40	77.4	77.4	79.2	86	72.9	0	1	248	0.00	29.883 
02:45	77.2	77.2	78.7	87	73.0	0	1	248	0.00	29.884 
02:50	77.2	77.2	78.7	87	73.0	0	2	248	0.00	29.884 
02:55	77.0	77.0	78.3	87	72.8	0	1	248	0.00	29.884 
03:00	77.0	77.0	78.3	88	73.2	0	0	---	0.00	29.881 
03:05	76.8	76.8	77.9	88	73.0	0	0	---	0.00	29.881 
03:10	76.7	76.7	77.7	88	72.9	0	0	---	0.00	29.881 
03:15	76.5	76.5	77.2	88	72.7	0	0	---	0.00	29.883 
03:20	76.3	76.3	76.8	89	72.8	0	0	---	0.00	29.883 
03:25	76.3	76.3	76.8	89	72.8	0	0	---	0.00	29.883 
03:30	76.1	76.1	76.3	90	72.9	0	0	---	0.00	29.879 
03:35	76.0	76.0	76.0	90	72.8	0	1	248	0.00	29.879 
03:40	76.0	76.0	75.9	91	73.2	0	1	248	0.00	29.879 
03:45	76.1	76.1	76.1	91	73.3	0	1	248	0.00	29.876 
03:50	76.1	76.1	76.1	91	73.3	0	1	248	0.00	29.876 
03:55	76.1	76.1	76.1	91	73.3	0	0	---	0.00	29.876 
04:00	76.1	76.1	76.1	91	73.3	0	1	248	0.00	29.876 
04:05	76.1	76.1	76.1	91	73.3	0	1	248	0.00	29.876 
04:10	76.1	76.1	76.1	91	73.3	0	2	248	0.00	29.876 
04:15	76.1	76.1	76.0	92	73.6	0	1	248	0.00	29.875 
04:20	76.1	76.1	76.0	92	73.6	0	1	248	0.00	29.875 
04:25	76.1	76.1	76.0	92	73.6	0	1	248	0.00	29.875 
04:30	76.0	76.0	75.9	91	73.2	0	1	248	0.00	29.872 
04:35	76.0	76.0	75.8	92	73.5	0	2	248	0.00	29.872 
04:40	76.0	76.0	75.8	92	73.5	0	2	248	0.00	29.872 
04:45	76.0	76.0	75.8	92	73.5	0	1	248	0.00	29.865 
04:50	76.0	76.0	75.8	92	73.5	1	2	248	0.00	29.865 
04:55	76.0	76.0	75.8	92	73.5	0	2	248	0.00	29.865 
05:00	76.0	76.0	75.8	92	73.5	0	1	248	0.00	29.865 
05:05	76.0	76.0	75.8	92	73.5	0	1	248	0.00	29.865 
05:10	75.8	75.8	75.4	92	73.3	0	1	248	0.00	29.865 
05:15	75.8	75.8	75.4	92	73.3	0	1	248	0.00	29.861 
05:20	75.8	75.8	75.4	92	73.3	0	2	248	0.00	29.861 
05:25	75.8	75.8	75.4	92	73.3	0	1	248	0.00	29.861 
05:30	76.0	76.0	75.8	92	73.5	1	3	248	0.00	29.861 
05:35	76.0	76.0	75.8	92	73.5	0	1	248	0.00	29.861 
05:40	75.8	75.8	75.4	92	73.3	0	1	248	0.00	29.861 
05:45	75.8	75.8	75.4	92	73.3	0	2	248	0.00	29.863 
05:50	75.8	75.8	75.4	92	73.3	0	3	248	0.00	29.863 
05:55	75.8	75.8	75.4	92	73.3	1	2	248	0.00	29.863 
06:00	75.8	75.8	75.4	92	73.3	0	2	248	0.00	29.861 
06:05	75.8	75.8	75.4	92	73.3	0	1	248	0.00	29.861 
06:10	75.8	75.8	75.4	92	73.3	0	1	248	0.00	29.861 
06:15	75.6	75.6	75.0	92	73.1	0	1	248	0.00	29.862 
06:20	75.6	75.6	75.0	92	73.1	0	1	248	0.00	29.862 
06:25	75.6	75.6	75.0	92	73.1	0	2	248	0.00	29.862 
06:30	75.8	75.8	75.4	92	73.3	0	2	248	0.00	29.866 
06:35	75.6	75.6	75.1	91	72.8	0	2	248	0.00	29.866 
06:40	75.6	75.6	75.1	91	72.8	0	2	248	0.00	29.866 
06:45	75.6	75.6	75.1	91	72.8	0	1	248	0.00	29.869 
06:50	75.6	75.6	75.0	92	73.1	1	2	248	0.00	29.869 
06:55	75.8	75.8	75.5	91	73.0	1	2	248	0.00	29.869 
07:00	75.8	75.8	75.5	91	73.0	1	3	248	0.00	29.871 
07:05	75.8	75.8	75.5	91	73.0	1	2	248	0.00	29.871 
07:10	76.0	76.0	75.9	91	73.2	1	3	248	0.00	29.871 
07:15	76.0	76.0	75.9	91	73.2	1	2	248	0.00	29.873 
07:20	76.1	76.1	76.3	90	72.9	1	2	248	0.00	29.873 
07:25	76.1	76.1	76.3	90	72.9	1	3	248	0.00	29.873 
07:30	76.3	76.3	76.7	90	73.1	1	2	248	0.00	29.878 
07:35	76.5	76.5	77.2	89	73.0	1	2	248	0.00	29.878 
07:40	76.7	76.7	77.6	89	73.2	1	2	248	0.00	29.878 
07:45	76.8	76.8	77.8	89	73.3	1	3	248	0.00	29.876 
07:50	77.0	77.0	78.3	88	73.2	1	3	248	0.00	29.876 
07:55	77.4	77.4	79.1	88	73.6	1	4	248	0.00	29.876 
08:00	77.6	77.6	79.6	87	73.4	0	3	248	0.00	29.879 
08:05	77.7	77.7	79.8	86	73.2	1	3	248	0.00	29.879 
08:10	77.9	77.9	80.2	86	73.4	1	4	248	0.00	29.879 
08:15	78.1	78.1	80.6	85	73.2	1	4	270	0.00	29.882 
08:20	78.3	78.3	81.0	85	73.4	1	2	270	0.00	29.882 
08:25	78.6	78.6	81.6	84	73.3	1	3	270	0.00	29.882 
08:30	78.8	78.8	82.0	83	73.2	1	3	270	0.00	29.883 
08:35	79.0	79.0	82.3	82	73.0	1	3	270	0.00	29.883 
08:40	79.4	79.4	83.1	81	73.0	1	2	248	0.00	29.883 
08:45	79.8	79.8	84.1	82	73.8	0	2	248	0.00	29.882 
08:50	79.9	79.9	84.1	81	73.5	2	3	248	0.00	29.882 
08:55	80.1	80.1	84.6	81	73.7	1	5	270	0.00	29.882 
09:00	80.3	80.3	84.9	80	73.5	2	3	270	0.00	29.879 
09:05	80.7	80.7	85.6	79	73.6	1	2	270	0.00	29.879 
09:10	81.1	81.1	86.5	79	73.9	1	4	225	0.00	29.879 
09:15	81.2	81.2	86.3	77	73.3	2	4	270	0.00	29.879 
09:20	81.2	81.2	86.1	76	72.9	2	4	270	0.00	29.879 
09:25	81.4	81.4	86.5	76	73.1	2	4	270	0.00	29.879 
09:30	81.6	81.6	86.9	76	73.3	2	5	248	0.00	29.881 
09:35	82.0	82.0	87.6	75	73.3	2	3	270	0.00	29.881 
09:40	82.2	82.2	88.0	75	73.5	2	4	248	0.00	29.881 
09:45	82.8	82.8	88.8	73	73.2	2	5	248	0.00	29.878 
09:50	83.0	83.0	89.2	73	73.4	2	4	248	0.00	29.878 
09:55	83.4	83.4	90.1	73	73.8	2	3	248	0.00	29.878 
10:00	83.6	83.6	90.2	72	73.6	2	4	270	0.00	29.874 
10:05	83.6	83.6	90.2	72	73.6	2	5	270	0.00	29.874 
10:10	83.6	83.6	90.2	72	73.6	2	4	292	0.00	29.874 
10:15	84.0	84.0	90.8	71	73.6	2	4	315	0.00	29.875 
10:20	84.1	84.1	90.7	70	73.2	2	5	270	0.00	29.875 
10:25	84.3	84.3	91.1	70	73.4	2	4	248	0.00	29.875 
10:30	84.7	84.7	92.4	71	74.2	2	5	248	0.00	29.878 
10:35	85.1	85.1	93.3	71	74.6	2	3	248	0.00	29.878 
10:40	85.3	85.3	93.0	69	73.9	2	4	315	0.00	29.878 
10:45	85.5	85.5	93.5	69	74.1	1	3	292	0.00	29.876 
10:50	85.7	85.7	93.1	67	73.4	2	4	292	0.00	29.876 
10:55	85.9	85.9	94.0	68	74.1	2	5	270	0.00	29.876 
11:00	85.7	85.7	93.5	68	73.9	2	4	270	0.00	29.875 
11:05	85.9	85.9	94.0	68	74.1	2	4	270	0.00	29.875 
11:10	85.9	85.9	94.0	68	74.1	2	4	292	0.00	29.875 
11:15	86.1	86.1	94.9	69	74.7	2	4	292	0.00	29.872 
11:20	86.3	86.3	94.1	66	73.6	2	4	248	0.00	29.872 
11:25	87.0	87.0	95.7	66	74.2	2	3	248	0.00	29.872 
11:30	87.2	87.2	97.1	68	75.3	2	4	248	0.00	29.877 
11:35	87.4	87.4	96.1	65	74.2	2	4	248	0.00	29.877 
11:40	87.6	87.6	97.1	66	74.8	1	4	270	0.00	29.877 
11:45	87.6	87.6	96.1	64	73.9	2	4	270	0.00	29.880 
11:50	87.8	87.8	97.1	65	74.5	2	5	270	0.00	29.880 
11:55	87.6	87.6	96.1	64	73.9	1	3	248	0.00	29.880 
12:00	88.0	88.0	97.6	65	74.7	1	3	270	0.00	29.873 
12:05	88.0	88.0	96.1	62	73.3	1	3	270	0.00	29.873 
12:10	88.0	88.0	98.1	66	75.2	2	3	270	0.00	29.873 
12:15	88.0	88.0	96.1	62	73.3	2	3	248	0.00	29.877 
12:20	87.6	87.6	96.6	65	74.3	1	3	270	0.00	29.877 
12:25	87.8	87.8	96.6	64	74.1	2	3	292	0.00	29.877 
12:30	87.8	87.8	96.1	63	73.6	1	2	270	0.00	29.879 
12:35	88.2	88.2	96.5	62	73.5	2	5	270	0.00	29.879 
12:40	88.8	88.8	98.5	63	74.5	2	5	248	0.00	29.879 
12:45	89.3	89.3	99.1	62	74.5	2	3	248	0.00	29.877 
12:50	89.7	89.7	99.5	61	74.4	1	3	270	0.00	29.877 
12:55	89.7	89.7	97.9	58	72.9	2	4	270	0.00	29.877 
13:00	89.9	89.9	97.8	57	72.6	2	4	248	0.00	29.872 
13:05	90.3	90.3	98.7	57	73.0	2	4	248	0.00	29.872 
13:10	90.3	90.3	99.3	58	73.5	2	5	248	0.00	29.872 
13:15	90.1	90.1	98.8	58	73.3	2	4	270	0.00	29.874 
13:20	89.9	89.9	97.3	56	72.1	2	4	270	0.00	29.874 
13:25	89.9	89.9	98.3	58	73.1	1	2	270	0.00	29.874 
13:30	89.9	89.9	98.3	58	73.1	2	5	248	0.00	29.871 
13:35	89.9	89.9	97.3	56	72.1	1	4	270	0.00	29.871 
13:40	89.9	89.9	97.8	57	72.6	2	5	270	0.00	29.871 
13:45	90.1	90.1	98.3	57	72.8	2	5	248	0.00	29.866 
13:50	90.5	90.5	97.0	53	71.0	2	4	270	0.00	29.866 
13:55	90.5	90.5	98.6	56	72.6	1	3	292	0.00	29.866 
14:00	90.5	90.5	98.1	55	72.1	2	3	270	0.00	29.859 
14:05	90.1	90.1	98.3	57	72.8	2	3	270	0.00	29.859 
14:10	89.9	89.9	97.8	57	72.6	2	4	270	0.00	29.859 
14:15	89.5	89.5	94.5	52	69.5	2	4	270	0.00	29.858 
14:20	89.7	89.7	95.9	54	70.8	1	3	270	0.00	29.858 
14:25	89.9	89.9	96.8	55	71.5	1	3	248	0.00	29.858 
14:30	89.9	89.9	96.8	55	71.5	2	4	270	0.00	29.847 
14:35	89.9	89.9	97.8	57	72.6	1	4	270	0.00	29.847 
14:40	89.9	89.9	97.8	57	72.6	1	3	248	0.00	29.847 
14:45	89.7	89.7	96.9	56	71.9	1	3	270	0.00	29.845 
14:50	89.7	89.7	95.4	53	70.3	2	5	248	0.00	29.845 
14:55	89.7	89.7	96.9	56	71.9	1	2	248	0.00	29.845 
15:00	89.5	89.5	96.9	57	72.2	1	2	248	0.00	29.843 
15:05	89.5	89.5	96.9	57	72.2	2	5	248	0.00	29.843 
15:10	89.5	89.5	96.9	57	72.2	2	4	248	0.00	29.843 
15:15	89.3	89.3	97.0	58	72.5	1	3	270	0.00	29.846 
15:20	89.5	89.5	96.9	57	72.2	2	4	270	0.00	29.846 
15:25	89.3	89.3	95.5	55	71.0	2	3	248	0.00	29.846 
15:30	89.5	89.5	96.9	57	72.2	2	4	248	0.00	29.836 
15:35	89.7	89.7	96.9	56	71.9	2	4	292	0.00	29.836 
15:40	89.7	89.7	95.9	54	70.8	2	4	270	0.00	29.836 
15:45	89.5	89.5	96.9	57	72.2	2	4	270	0.00	29.831 
15:50	89.3	89.3	96.5	57	72.0	1	3	270	0.00	29.831 
15:55	89.0	89.0	96.4	58	72.3	1	4	248	0.00	29.831 
16:00	88.8	88.8	96.4	59	72.6	2	3	270	0.00	29.826 
16:05	88.8	88.8	96.4	59	72.6	1	2	270	0.00	29.826 
16:10	88.8	88.8	97.4	61	73.6	2	4	270	0.00	29.826 
16:15	88.8	88.8	96.4	59	72.6	2	4	270	0.00	29.817 
16:20	88.8	88.8	97.9	62	74.1	2	4	270	0.00	29.817 
16:25	88.8	88.8	98.5	63	74.5	1	4	248	0.00	29.817 
16:30	88.8	88.8	97.4	61	73.6	2	4	248	0.00	29.805 
16:35	88.8	88.8	97.4	61	73.6	2	5	270	0.00	29.805 
16:40	88.2	88.2	96.5	62	73.5	3	5	270	0.00	29.805 
16:45	88.2	88.2	97.0	63	74.0	1	4	270	0.00	29.798 
16:50	88.2	88.2	96.1	61	73.0	2	5	270	0.00	29.798 
16:55	88.0	88.0	95.1	60	72.3	2	7	248	0.00	29.798 
17:00	87.8	87.8	94.3	59	71.7	2	6	248	0.00	29.806 
17:05	87.6	87.6	93.9	59	71.5	2	5	248	0.00	29.806 
17:10	87.6	87.6	94.3	60	72.0	2	5	248	0.00	29.806 
17:15	87.6	87.6	94.7	61	72.5	1	4	248	0.00	29.800 
17:20	87.4	87.4	94.3	61	72.3	1	3	270	0.00	29.800 
17:25	87.4	87.4	94.8	62	72.7	1	3	248	0.00	29.800 
17:30	87.4	87.4	94.8	62	72.7	1	3	248	0.00	29.809 
17:35	87.6	87.6	95.2	62	72.9	2	4	248	0.00	29.809 
17:40	87.8	87.8	95.2	61	72.6	3	9	270	0.00	29.809 
17:45	87.8	87.8	95.6	62	73.1	2	4	248	0.00	29.798 
17:50	87.8	87.8	95.2	61	72.6	2	7	248	0.00	29.798 
17:55	87.6	87.6	94.7	61	72.5	3	4	270	0.00	29.798 
18:00	87.4	87.4	94.8	62	72.7	2	6	270	0.00	29.801 
18:05	87.2	87.2	94.3	62	72.6	2	5	248	0.00	29.801 
18:10	87.0	87.0	94.3	63	72.8	2	9	248	0.00	29.801 
18:15	87.0	87.0	93.9	62	72.4	3	6	248	0.00	29.793 
18:20	87.2	87.2	94.3	62	72.6	3	5	270	0.00	29.793 
18:25	87.6	87.6	95.7	63	73.4	1	3	248	0.00	29.793 
18:30	87.8	87.8	95.6	62	73.1	1	3	270	0.00	29.797 
18:35	87.6	87.6	95.2	62	72.9	2	5	248	0.00	29.797 
18:40	87.4	87.4	94.8	62	72.7	3	9	248	0.00	29.797 
18:45	87.2	87.2	94.8	63	73.0	2	4	248	0.00	29.788 
18:50	86.7	86.7	94.1	64	73.0	1	4	248	0.00	29.788 
18:55	86.5	86.5	93.7	64	72.8	3	6	248	0.00	29.788 
19:00	86.5	86.5	94.1	65	73.3	1	4	270	0.00	29.788 
19:05	86.5	86.5	93.7	64	72.8	2	5	248	0.00	29.788 
19:10	86.5	86.5	93.7	64	72.8	2	6	248	0.00	29.788 
19:15	86.3	86.3	93.6	65	73.1	1	3	248	0.00	29.793 
19:20	86.3	86.3	94.1	66	73.6	1	3	248	0.00	29.793 
19:25	86.3	86.3	93.6	65	73.1	0	2	270	0.00	29.793 
19:30	86.3	86.3	94.1	66	73.6	0	1	270	0.00	29.798 
19:35	86.3	86.3	94.1	66	73.6	0	2	270	0.00	29.798 
19:40	86.3	86.3	94.1	66	73.6	1	2	270	0.00	29.798 
19:45	86.1	86.1	93.6	66	73.4	0	1	270	0.00	29.798 
19:50	86.1	86.1	94.0	67	73.8	0	1	270	0.00	29.798 
19:55	85.9	85.9	93.2	66	73.2	0	1	270	0.00	29.798 
20:00	85.9	85.9	92.8	65	72.7	1	4	248	0.00	29.807 
20:05	85.7	85.7	92.0	64	72.1	1	4	248	0.00	29.807 
20:10	85.5	85.5	91.9	65	72.4	1	3	248	0.00	29.807 
20:15	85.3	85.3	91.5	65	72.2	1	3	248	0.00	29.808 
20:20	85.3	85.3	91.9	66	72.6	1	2	248	0.00	29.808 
20:25	84.9	84.9	91.4	67	72.7	0	2	248	0.00	29.808 
20:30	84.7	84.7	91.0	67	72.5	0	2	248	0.00	29.811 
20:35	84.7	84.7	91.3	68	72.9	0	0	---	0.00	29.811 
20:40	84.3	84.3	91.1	70	73.4	0	1	248	0.00	29.811 
20:45	84.0	84.0	90.5	70	73.1	0	1	248	0.00	29.811 
20:50	83.6	83.6	89.9	71	73.2	0	1	248	0.00	29.811 
20:55	83.4	83.4	89.5	71	73.0	0	1	248	0.00	29.811 
21:00	83.4	83.4	89.8	72	73.4	0	1	248	0.00	29.809 
21:05	83.0	83.0	89.2	73	73.4	0	1	248	0.00	29.809 
21:10	82.8	82.8	89.1	74	73.6	0	1	248	0.00	29.809 
21:15	82.4	82.4	88.2	74	73.3	0	0	---	0.00	29.802 
21:20	82.2	82.2	88.0	75	73.5	0	0	---	0.00	29.802 
21:25	82.0	82.0	87.8	76	73.7	0	1	248	0.00	29.802 
21:30	81.8	81.8	87.6	77	73.9	0	1	248	0.00	29.801 
21:35	81.6	81.6	87.2	77	73.7	0	1	248	0.00	29.801 
21:40	81.6	81.6	87.4	78	74.1	0	1	248	0.00	29.801 
21:45	81.4	81.4	86.9	78	73.9	0	2	248	0.00	29.809 
21:50	81.4	81.4	86.9	78	73.9	0	1	248	0.00	29.809 
21:55	81.6	81.6	87.4	78	74.1	0	2	248	0.00	29.809 
22:00	81.6	81.6	87.4	78	74.1	1	3	248	0.00	29.810 
22:05	81.4	81.4	87.1	79	74.2	0	1	248	0.00	29.810 
22:10	81.6	81.6	87.4	78	74.1	1	4	248	0.00	29.810 
22:15	81.6	81.6	87.4	78	74.1	1	3	270	0.00	29.809 
22:20	81.6	81.6	87.4	78	74.1	1	3	270	0.00	29.809 
22:25	81.6	81.6	87.4	78	74.1	1	3	270	0.00	29.809 
22:30	81.4	81.4	87.1	79	74.2	0	2	270	0.00	29.814 
22:35	81.4	81.4	87.1	79	74.2	0	1	270	0.00	29.814 
22:40	81.2	81.2	86.7	79	74.0	0	1	270	0.00	29.814 
22:45	81.1	81.1	86.7	80	74.3	0	2	270	0.00	29.815 
22:50	80.9	80.9	86.2	80	74.1	0	1	270	0.00	29.815 
22:55	80.7	80.7	85.8	80	73.9	0	2	270	0.00	29.815 
23:00	80.7	80.7	85.8	80	73.9	0	1	270	0.00	29.814 
23:05	80.5	80.5	85.5	81	74.1	0	2	270	0.00	29.814 
23:10	80.5	80.5	85.5	81	74.1	0	2	270	0.00	29.814 
23:15	80.5	80.5	85.5	81	74.1	1	3	270	0.00	29.815 
23:20	80.5	80.5	85.5	81	74.1	0	2	270	0.00	29.815 
23:25	80.3	80.3	85.0	81	73.9	0	1	270	0.00	29.815 
23:30	80.1	80.1	84.6	81	73.7	0	1	270	0.00	29.814 
23:35	79.9	79.9	84.3	82	73.9	0	1	270	0.00	29.814 
23:40	79.8	79.8	84.1	82	73.8	0	2	270	0.00	29.814 
23:45	79.8	79.8	84.1	82	73.8	0	1	270	0.00	29.816 
23:50	79.6	79.6	83.7	83	74.0	0	1	270	0.00	29.816 
23:55	79.6	79.6	83.7	83	74.0	0	2	270	0.00	29.816 

CoCoRaHS
IN-AL-39
A2 Web Hosting
Creative Commons License
GoDaddy
Look for:

loaded 2017-12-11 14:08:08 • last modified 2010-11-18 10:43:29
Privacy PolicyDisclaimer
• wx.awcolley.com is powered by PmWiki v.2002016 •
• all content (unless otherwise noted) © 2017 A W Colley